< < Back
Terminal Aerodrome Forecast


Current Version              Previous Versions:   1  2  3  4  5  6  7  8  9  

Terminal Aerodrome Forecast

760
FTUS42 KMLB 251130
TAFDAB
TAF
KDAB 251130Z 2512/2612 09003KT P6SM VCSH SCT025
     FM251400 10010KT P6SM VCSH SCT025
     FM251800 09012G20KT P6SM SCT030 BKN060
     FM260000 09007KT P6SM SCT030 SCT250=

Latest METAR

090
SAUS80 KWBC 251100 RRA
MTRDAB
METAR KDAB 251053Z 00000KT 9SM FEW025 FEW250 23/22 A3020 RMK AO2 RAE20
SLP225 TCU DSNT N E P0000 T02330217


USA.gov is the U.S. government's official web portal to all federal, state and local government web resources and services.